sensor_id;sensor_type;location;lat;lon;timestamp;pressure;altitude;pressure_sealevel;temperature;humidity
22572;BME280;11452;53.368;14.658;2023-07-20T00:03:21;100468.50;;;18.28;67.41
22572;BME280;11452;53.368;14.658;2023-07-20T00:08:28;100467.37;;;18.30;67.55
22572;BME280;11452;53.368;14.658;2023-07-20T00:13:34;100463.88;;;18.34;67.69
22572;BME280;11452;53.368;14.658;2023-07-20T00:18:39;100467.73;;;18.31;67.54
22572;BME280;11452;53.368;14.658;2023-07-20T00:23:45;100460.68;;;18.34;67.46
22572;BME280;11452;53.368;14.658;2023-07-20T00:28:51;100464.24;;;18.35;67.80
22572;BME280;11452;53.368;14.658;2023-07-20T00:33:57;100463.74;;;18.36;67.66
22572;BME280;11452;53.368;14.658;2023-07-20T00:39:03;100465.58;;;18.25;67.63
22572;BME280;11452;53.368;14.658;2023-07-20T00:44:10;100459.67;;;18.26;67.71
22572;BME280;11452;53.368;14.658;2023-07-20T00:49:17;100461.02;;;18.26;67.75
22572;BME280;11452;53.368;14.658;2023-07-20T00:54:27;100465.66;;;18.29;67.79
22572;BME280;11452;53.368;14.658;2023-07-20T00:59:40;100473.99;;;18.32;67.66
22572;BME280;11452;53.368;14.658;2023-07-20T01:04:40;100470.00;;;18.26;67.44
22572;BME280;11452;53.368;14.658;2023-07-20T01:15:06;100473.75;;;18.20;67.61
22572;BME280;11452;53.368;14.658;2023-07-20T01:20:14;100476.19;;;18.13;67.86
22572;BME280;11452;53.368;14.658;2023-07-20T01:36:19;100475.06;;;18.16;68.14
22572;BME280;11452;53.368;14.658;2023-07-20T01:41:27;100471.28;;;18.13;68.35
22572;BME280;11452;53.368;14.658;2023-07-20T01:46:33;100465.87;;;18.13;68.28
22572;BME280;11452;53.368;14.658;2023-07-20T01:51:39;100458.31;;;18.07;68.21
22572;BME280;11452;53.368;14.658;2023-07-20T01:56:46;100459.22;;;18.02;68.54
22572;BME280;11452;53.368;14.658;2023-07-20T02:01:52;100457.37;;;18.02;68.77
22572;BME280;11452;53.368;14.658;2023-07-20T02:06:58;100454.03;;;18.04;68.81
22572;BME280;11452;53.368;14.658;2023-07-20T02:12:05;100457.73;;;18.03;68.88
22572;BME280;11452;53.368;14.658;2023-07-20T02:17:11;100454.75;;;17.96;68.84
22572;BME280;11452;53.368;14.658;2023-07-20T02:22:17;100451.83;;;17.94;69.15
22572;BME280;11452;53.368;14.658;2023-07-20T02:27:23;100457.66;;;17.89;69.35
22572;BME280;11452;53.368;14.658;2023-07-20T02:32:29;100454.36;;;17.86;69.44
22572;BME280;11452;53.368;14.658;2023-07-20T02:37:36;100460.71;;;17.81;69.47
22572;BME280;11452;53.368;14.658;2023-07-20T02:42:42;100461.62;;;17.76;69.94
22572;BME280;11452;53.368;14.658;2023-07-20T02:47:48;100467.21;;;17.69;69.97
22572;BME280;11452;53.368;14.658;2023-07-20T02:52:54;100452.79;;;17.74;70.02
22572;BME280;11452;53.368;14.658;2023-07-20T02:58:00;100463.02;;;17.70;70.00
22572;BME280;11452;53.368;14.658;2023-07-20T03:03:05;100464.02;;;17.63;70.25
22572;BME280;11452;53.368;14.658;2023-07-20T03:08:13;100465.86;;;17.53;70.62
22572;BME280;11452;53.368;14.658;2023-07-20T03:13:19;100469.91;;;17.53;70.62
22572;BME280;11452;53.368;14.658;2023-07-20T03:18:24;100468.88;;;17.45;70.64
22572;BME280;11452;53.368;14.658;2023-07-20T03:23:31;100465.75;;;17.40;70.98
22572;BME280;11452;53.368;14.658;2023-07-20T03:28:38;100459.62;;;17.38;71.17
22572;BME280;11452;53.368;14.658;2023-07-20T03:33:46;100463.27;;;17.42;71.30
22572;BME280;11452;53.368;14.658;2023-07-20T03:38:51;100464.53;;;17.38;71.38
22572;BME280;11452;53.368;14.658;2023-07-20T03:43:57;100454.63;;;17.33;71.40
22572;BME280;11452;53.368;14.658;2023-07-20T03:49:03;100465.70;;;17.30;71.54
22572;BME280;11452;53.368;14.658;2023-07-20T03:54:10;100475.11;;;17.36;71.75
22572;BME280;11452;53.368;14.658;2023-07-20T03:59:16;100478.06;;;17.48;72.00
22572;BME280;11452;53.368;14.658;2023-07-20T04:04:22;100479.55;;;17.61;71.78
22572;BME280;11452;53.368;14.658;2023-07-20T04:09:28;100477.34;;;17.61;71.43
22572;BME280;11452;53.368;14.658;2023-07-20T04:14:33;100470.55;;;17.67;71.22
22572;BME280;11452;53.368;14.658;2023-07-20T04:19:39;100473.25;;;17.67;70.68
22572;BME280;11452;53.368;14.658;2023-07-20T04:24:45;100474.86;;;17.79;71.27
22572;BME280;11452;53.368;14.658;2023-07-20T04:29:52;100478.43;;;17.89;70.97
22572;BME280;11452;53.368;14.658;2023-07-20T04:34:58;100487.17;;;17.87;70.40
22572;BME280;11452;53.368;14.658;2023-07-20T04:40:06;100476.61;;;17.99;71.07
22572;BME280;11452;53.368;14.658;2023-07-20T04:45:13;100482.68;;;18.16;70.25
22572;BME280;11452;53.368;14.658;2023-07-20T04:50:18;100484.46;;;18.31;70.28
22572;BME280;11452;53.368;14.658;2023-07-20T04:55:24;100482.97;;;18.32;69.60
22572;BME280;11452;53.368;14.658;2023-07-20T05:00:32;100481.53;;;18.48;69.88
22572;BME280;11452;53.368;14.658;2023-07-20T05:05:38;100486.24;;;18.55;68.69
22572;BME280;11452;53.368;14.658;2023-07-20T05:10:44;100495.09;;;18.67;68.96
22572;BME280;11452;53.368;14.658;2023-07-20T05:15:53;100489.81;;;18.65;68.33
22572;BME280;11452;53.368;14.658;2023-07-20T05:20:59;100486.51;;;18.81;68.26
22572;BME280;11452;53.368;14.658;2023-07-20T05:26:05;100493.49;;;18.84;68.04
22572;BME280;11452;53.368;14.658;2023-07-20T05:31:11;100489.92;;;18.83;67.15
22572;BME280;11452;53.368;14.658;2023-07-20T05:36:17;100491.60;;;18.94;66.84
22572;BME280;11452;53.368;14.658;2023-07-20T05:41:23;100497.98;;;18.89;66.83
22572;BME280;11452;53.368;14.658;2023-07-20T05:46:29;100495.91;;;18.87;66.76
22572;BME280;11452;53.368;14.658;2023-07-20T05:51:36;100496.16;;;18.93;66.77
22572;BME280;11452;53.368;14.658;2023-07-20T05:56:43;100499.05;;;18.82;67.09
22572;BME280;11452;53.368;14.658;2023-07-20T06:01:49;100497.38;;;18.95;67.01
22572;BME280;11452;53.368;14.658;2023-07-20T06:06:55;100508.39;;;18.84;67.42
22572;BME280;11452;53.368;14.658;2023-07-20T06:12:02;100506.47;;;18.90;67.63
22572;BME280;11452;53.368;14.658;2023-07-20T06:17:08;100502.50;;;19.08;68.06
22572;BME280;11452;53.368;14.658;2023-07-20T06:22:14;100496.97;;;19.36;68.12
22572;BME280;11452;53.368;14.658;2023-07-20T06:27:20;100497.23;;;19.43;66.86
22572;BME280;11452;53.368;14.658;2023-07-20T06:32:25;100508.63;;;19.56;66.71
22572;BME280;11452;53.368;14.658;2023-07-20T06:37:31;100511.89;;;19.74;66.71
22572;BME280;11452;53.368;14.658;2023-07-20T06:42:37;100512.98;;;19.67;66.07
22572;BME280;11452;53.368;14.658;2023-07-20T06:47:45;100508.86;;;19.90;66.27
22572;BME280;11452;53.368;14.658;2023-07-20T06:52:51;100504.20;;;19.96;65.45
22572;BME280;11452;53.368;14.658;2023-07-20T06:57:58;100516.75;;;19.97;64.78
22572;BME280;11452;53.368;14.658;2023-07-20T07:03:04;100515.27;;;19.85;63.88
22572;BME280;11452;53.368;14.658;2023-07-20T07:08:10;100515.20;;;19.95;64.08
22572;BME280;11452;53.368;14.658;2023-07-20T07:13:16;100514.27;;;20.04;62.54
22572;BME280;11452;53.368;14.658;2023-07-20T07:18:22;100519.16;;;20.32;63.19
22572;BME280;11452;53.368;14.658;2023-07-20T07:23:29;100516.72;;;20.56;62.35
22572;BME280;11452;53.368;14.658;2023-07-20T07:28:35;100506.52;;;20.54;61.55
22572;BME280;11452;53.368;14.658;2023-07-20T07:33:41;100518.63;;;20.64;61.00
22572;BME280;11452;53.368;14.658;2023-07-20T07:38:47;100516.92;;;20.63;59.84
22572;BME280;11452;53.368;14.658;2023-07-20T07:43:55;100515.05;;;20.81;59.86
22572;BME280;11452;53.368;14.658;2023-07-20T07:49:01;100525.00;;;20.72;58.65
22572;BME280;11452;53.368;14.658;2023-07-20T07:54:07;100516.20;;;20.74;59.26
22572;BME280;11452;53.368;14.658;2023-07-20T07:59:13;100531.06;;;20.49;58.19
22572;BME280;11452;53.368;14.658;2023-07-20T08:04:19;100539.09;;;20.09;58.11
22572;BME280;11452;53.368;14.658;2023-07-20T08:09:25;100538.05;;;19.92;59.00
22572;BME280;11452;53.368;14.658;2023-07-20T08:14:30;100537.02;;;20.03;60.26
22572;BME280;11452;53.368;14.658;2023-07-20T08:19:37;100549.95;;;20.09;60.77
22572;BME280;11452;53.368;14.658;2023-07-20T08:24:45;100538.45;;;20.11;61.88
22572;BME280;11452;53.368;14.658;2023-07-20T08:29:51;100534.98;;;20.19;62.49
22572;BME280;11452;53.368;14.658;2023-07-20T08:34:56;100544.95;;;20.32;62.53
22572;BME280;11452;53.368;14.658;2023-07-20T08:40:02;100543.28;;;20.49;63.62
22572;BME280;11452;53.368;14.658;2023-07-20T08:45:09;100543.77;;;20.84;63.39
22572;BME280;11452;53.368;14.658;2023-07-20T08:50:17;100545.48;;;21.06;63.17
22572;BME280;11452;53.368;14.658;2023-07-20T08:55:24;100531.72;;;21.26;63.64
22572;BME280;11452;53.368;14.658;2023-07-20T09:00:29;100535.15;;;21.62;62.50
22572;BME280;11452;53.368;14.658;2023-07-20T09:05:36;100541.45;;;21.32;61.13
22572;BME280;11452;53.368;14.658;2023-07-20T09:10:44;100547.57;;;20.91;58.92
22572;BME280;11452;53.368;14.658;2023-07-20T09:15:55;100546.49;;;21.05;59.39
22572;BME280;11452;53.368;14.658;2023-07-20T09:21:05;100555.09;;;20.79;57.38
22572;BME280;11452;53.368;14.658;2023-07-20T09:26:12;100559.50;;;20.98;58.00
22572;BME280;11452;53.368;14.658;2023-07-20T09:31:21;100547.07;;;21.17;57.54
22572;BME280;11452;53.368;14.658;2023-07-20T09:36:28;100550.55;;;21.23;55.98
22572;BME280;11452;53.368;14.658;2023-07-20T09:41:41;100559.25;;;21.27;56.75
22572;BME280;11452;53.368;14.658;2023-07-20T09:46:49;100565.95;;;21.19;56.12
22572;BME280;11452;53.368;14.658;2023-07-20T09:52:02;100563.14;;;21.24;56.54
22572;BME280;11452;53.368;14.658;2023-07-20T09:57:08;100568.68;;;21.40;57.88
22572;BME280;11452;53.368;14.658;2023-07-20T10:02:25;100559.02;;;21.76;57.95
22572;BME280;11452;53.368;14.658;2023-07-20T10:07:34;100564.30;;;22.11;56.78
22572;BME280;11452;53.368;14.658;2023-07-20T10:12:50;100562.28;;;22.18;55.65
22572;BME280;11452;53.368;14.658;2023-07-20T10:23:13;100565.28;;;21.72;55.12
22572;BME280;11452;53.368;14.658;2023-07-20T10:28:19;100569.73;;;21.43;54.31
22572;BME280;11452;53.368;14.658;2023-07-20T10:33:27;100573.39;;;21.30;54.50
22572;BME280;11452;53.368;14.658;2023-07-20T10:44:06;100579.50;;;21.11;55.37
22572;BME280;11452;53.368;14.658;2023-07-20T10:49:12;100571.15;;;21.56;55.15
22572;BME280;11452;53.368;14.658;2023-07-20T11:04:39;100566.72;;;21.55;55.42
22572;BME280;11452;53.368;14.658;2023-07-20T11:09:45;100562.83;;;21.57;54.52
22572;BME280;11452;53.368;14.658;2023-07-20T11:14:55;100566.19;;;21.47;54.44
22572;BME280;11452;53.368;14.658;2023-07-20T11:20:03;100563.26;;;21.74;54.43
22572;BME280;11452;53.368;14.658;2023-07-20T11:25:11;100566.03;;;21.83;53.90
22572;BME280;11452;53.368;14.658;2023-07-20T11:30:17;100555.79;;;21.76;53.02
22572;BME280;11452;53.368;14.658;2023-07-20T11:35:23;100546.84;;;21.88;52.38
22572;BME280;11452;53.368;14.658;2023-07-20T11:40:29;100549.19;;;22.21;52.02
22572;BME280;11452;53.368;14.658;2023-07-20T11:45:35;100549.03;;;22.31;50.55
22572;BME280;11452;53.368;14.658;2023-07-20T11:50:43;100540.90;;;22.51;49.93
22572;BME280;11452;53.368;14.658;2023-07-20T11:55:49;100545.02;;;22.63;48.93
22572;BME280;11452;53.368;14.658;2023-07-20T12:00:55;100537.91;;;22.99;49.18
22572;BME280;11452;53.368;14.658;2023-07-20T12:06:09;100530.35;;;23.29;48.51
22572;BME280;11452;53.368;14.658;2023-07-20T12:11:40;100523.66;;;23.48;47.04
22572;BME280;11452;53.368;14.658;2023-07-20T12:16:31;100525.17;;;23.59;46.64
22572;BME280;11452;53.368;14.658;2023-07-20T12:21:37;100539.31;;;23.70;45.65
22572;BME280;11452;53.368;14.658;2023-07-20T12:26:41;100532.25;;;23.88;44.02
22572;BME280;11452;53.368;14.658;2023-07-20T12:31:48;100526.30;;;23.76;43.07
22572;BME280;11452;53.368;14.658;2023-07-20T12:36:54;100525.66;;;23.70;42.00
22572;BME280;11452;53.368;14.658;2023-07-20T12:42:00;100524.64;;;23.67;41.12
22572;BME280;11452;53.368;14.658;2023-07-20T12:47:06;100519.86;;;23.73;41.18
22572;BME280;11452;53.368;14.658;2023-07-20T12:52:12;100532.84;;;23.67;41.01
22572;BME280;11452;53.368;14.658;2023-07-20T12:57:18;100533.55;;;23.41;40.80
22572;BME280;11452;53.368;14.658;2023-07-20T13:02:24;100531.50;;;23.47;40.34
22572;BME280;11452;53.368;14.658;2023-07-20T13:07:31;100554.73;;;23.27;39.61
22572;BME280;11452;53.368;14.658;2023-07-20T13:12:39;100547.95;;;22.98;40.15
22572;BME280;11452;53.368;14.658;2023-07-20T13:17:45;100537.39;;;22.95;40.44
22572;BME280;11452;53.368;14.658;2023-07-20T13:22:52;100542.17;;;22.81;40.58
22572;BME280;11452;53.368;14.658;2023-07-20T13:27:57;100534.78;;;23.30;41.90
22572;BME280;11452;53.368;14.658;2023-07-20T13:33:03;100521.97;;;23.55;41.36
22572;BME280;11452;53.368;14.658;2023-07-20T13:38:10;100522.29;;;23.95;41.08
22572;BME280;11452;53.368;14.658;2023-07-20T13:43:16;100522.30;;;23.44;38.99
22572;BME280;11452;53.368;14.658;2023-07-20T13:48:22;100528.84;;;23.82;39.91
22572;BME280;11452;53.368;14.658;2023-07-20T13:53:29;100524.64;;;23.71;38.17
22572;BME280;11452;53.368;14.658;2023-07-20T13:58:37;100522.14;;;23.54;38.62
22572;BME280;11452;53.368;14.658;2023-07-20T14:03:44;100524.48;;;23.65;38.32
22572;BME280;11452;53.368;14.658;2023-07-20T14:08:50;100531.20;;;23.30;37.70
22572;BME280;11452;53.368;14.658;2023-07-20T14:13:57;100525.37;;;23.41;38.11
22572;BME280;11452;53.368;14.658;2023-07-20T14:19:03;100534.05;;;23.48;38.10
22572;BME280;11452;53.368;14.658;2023-07-20T14:24:09;100539.73;;;23.31;37.97
22572;BME280;11452;53.368;14.658;2023-07-20T14:29:15;100544.33;;;23.30;37.98
22572;BME280;11452;53.368;14.658;2023-07-20T14:34:22;100535.13;;;23.27;38.12
22572;BME280;11452;53.368;14.658;2023-07-20T14:39:28;100542.97;;;23.26;37.77
22572;BME280;11452;53.368;14.658;2023-07-20T14:44:34;100534.61;;;23.32;38.21
22572;BME280;11452;53.368;14.658;2023-07-20T14:49:41;100538.45;;;23.74;38.15
22572;BME280;11452;53.368;14.658;2023-07-20T14:54:48;100532.86;;;23.51;37.42
22572;BME280;11452;53.368;14.658;2023-07-20T14:59:53;100522.13;;;23.45;37.65
22572;BME280;11452;53.368;14.658;2023-07-20T15:04:59;100531.16;;;23.46;37.61
22572;BME280;11452;53.368;14.658;2023-07-20T15:10:07;100537.20;;;23.13;37.89
22572;BME280;11452;53.368;14.658;2023-07-20T15:15:14;100544.89;;;22.97;38.12
22572;BME280;11452;53.368;14.658;2023-07-20T15:20:20;100551.88;;;22.96;38.30
22572;BME280;11452;53.368;14.658;2023-07-20T15:25:26;100556.45;;;23.03;38.76
22572;BME280;11452;53.368;14.658;2023-07-20T15:30:33;100556.28;;;23.05;38.72
22572;BME280;11452;53.368;14.658;2023-07-20T15:35:40;100552.55;;;22.90;38.68
22572;BME280;11452;53.368;14.658;2023-07-20T15:40:47;100562.59;;;23.05;38.82
22572;BME280;11452;53.368;14.658;2023-07-20T15:46:01;100566.00;;;23.03;39.21
22572;BME280;11452;53.368;14.658;2023-07-20T15:51:09;100578.70;;;22.42;40.54
22572;BME280;11452;53.368;14.658;2023-07-20T15:56:15;100576.28;;;22.35;41.40
22572;BME280;11452;53.368;14.658;2023-07-20T16:01:21;100574.21;;;22.21;41.90
22572;BME280;11452;53.368;14.658;2023-07-20T16:06:28;100575.55;;;22.17;42.52
22572;BME280;11452;53.368;14.658;2023-07-20T16:11:34;100570.31;;;22.31;43.14
22572;BME280;11452;53.368;14.658;2023-07-20T16:16:41;100571.77;;;22.76;42.92
22572;BME280;11452;53.368;14.658;2023-07-20T16:21:47;100563.13;;;22.97;42.17
22572;BME280;11452;53.368;14.658;2023-07-20T16:26:53;100565.33;;;23.13;42.87
22572;BME280;11452;53.368;14.658;2023-07-20T16:31:59;100554.84;;;23.66;42.68
22572;BME280;11452;53.368;14.658;2023-07-20T16:37:06;100552.44;;;23.75;42.26
22572;BME280;11452;53.368;14.658;2023-07-20T16:42:14;100556.16;;;24.17;42.36
22572;BME280;11452;53.368;14.658;2023-07-20T16:47:20;100555.70;;;24.44;41.81
22572;BME280;11452;53.368;14.658;2023-07-20T16:52:27;100544.73;;;24.13;40.49
22572;BME280;11452;53.368;14.658;2023-07-20T16:57:33;100548.22;;;24.38;39.88
22572;BME280;11452;53.368;14.658;2023-07-20T17:02:39;100550.45;;;24.84;40.42
22572;BME280;11452;53.368;14.658;2023-07-20T17:07:46;100547.48;;;25.32;40.19
22572;BME280;11452;53.368;14.658;2023-07-20T17:12:52;100559.28;;;25.13;39.10
22572;BME280;11452;53.368;14.658;2023-07-20T17:17:58;100565.78;;;25.31;39.36
22572;BME280;11452;53.368;14.658;2023-07-20T17:23:04;100565.14;;;25.92;38.49
22572;BME280;11452;53.368;14.658;2023-07-20T17:28:09;100574.11;;;25.00;37.81
22572;BME280;11452;53.368;14.658;2023-07-20T17:33:17;100572.53;;;24.21;38.40
22572;BME280;11452;53.368;14.658;2023-07-20T17:38:23;100580.83;;;23.97;39.29
22572;BME280;11452;53.368;14.658;2023-07-20T17:43:31;100578.67;;;24.23;39.70
22572;BME280;11452;53.368;14.658;2023-07-20T17:48:37;100579.97;;;24.00;39.35
22572;BME280;11452;53.368;14.658;2023-07-20T17:53:43;100596.47;;;23.47;39.16
22572;BME280;11452;53.368;14.658;2023-07-20T17:58:49;100595.66;;;22.94;39.93
22572;BME280;11452;53.368;14.658;2023-07-20T18:03:55;100604.92;;;22.51;40.78
22572;BME280;11452;53.368;14.658;2023-07-20T18:09:00;100596.36;;;22.26;41.45
22572;BME280;11452;53.368;14.658;2023-07-20T18:14:06;100591.36;;;22.13;42.17
22572;BME280;11452;53.368;14.658;2023-07-20T18:19:12;100591.34;;;22.05;42.32
22572;BME280;11452;53.368;14.658;2023-07-20T18:24:18;100586.14;;;21.94;42.72
22572;BME280;11452;53.368;14.658;2023-07-20T18:29:25;100586.83;;;22.26;44.66
22572;BME280;11452;53.368;14.658;2023-07-20T18:34:33;100589.34;;;22.86;43.63
22572;BME280;11452;53.368;14.658;2023-07-20T18:39:41;100585.88;;;22.59;42.47
22572;BME280;11452;53.368;14.658;2023-07-20T18:44:48;100586.33;;;22.34;42.86
22572;BME280;11452;53.368;14.658;2023-07-20T18:49:55;100586.00;;;21.99;42.72
22572;BME280;11452;53.368;14.658;2023-07-20T18:55:02;100579.91;;;21.67;43.45
22572;BME280;11452;53.368;14.658;2023-07-20T19:00:10;100590.13;;;21.43;43.87
22572;BME280;11452;53.368;14.658;2023-07-20T19:05:28;100602.56;;;21.24;44.73
22572;BME280;11452;53.368;14.658;2023-07-20T19:10:34;100599.34;;;21.07;44.67
22572;BME280;11452;53.368;14.658;2023-07-20T19:15:49;100604.35;;;20.80;45.01
22572;BME280;11452;53.368;14.658;2023-07-20T19:21:01;100606.91;;;20.64;45.73
22572;BME280;11452;53.368;14.658;2023-07-20T19:26:11;100612.83;;;20.46;46.04
22572;BME280;11452;53.368;14.658;2023-07-20T19:31:17;100617.54;;;20.39;46.92
22572;BME280;11452;53.368;14.658;2023-07-20T19:36:23;100621.84;;;20.19;47.29
22572;BME280;11452;53.368;14.658;2023-07-20T19:41:29;100633.08;;;20.10;47.59
22572;BME280;11452;53.368;14.658;2023-07-20T19:46:35;100640.00;;;19.95;48.16
22572;BME280;11452;53.368;14.658;2023-07-20T19:51:41;100633.71;;;19.81;48.73
22572;BME280;11452;53.368;14.658;2023-07-20T19:56:49;100642.43;;;19.75;49.14
22572;BME280;11452;53.368;14.658;2023-07-20T20:01:54;100640.63;;;19.65;49.29
22572;BME280;11452;53.368;14.658;2023-07-20T20:07:01;100645.41;;;19.58;49.77
22572;BME280;11452;53.368;14.658;2023-07-20T20:12:09;100641.48;;;19.56;50.21
22572;BME280;11452;53.368;14.658;2023-07-20T20:17:16;100642.34;;;19.57;50.54
22572;BME280;11452;53.368;14.658;2023-07-20T20:22:24;100649.12;;;19.57;50.88
22572;BME280;11452;53.368;14.658;2023-07-20T20:27:30;100652.05;;;19.50;51.20
22572;BME280;11452;53.368;14.658;2023-07-20T20:32:35;100647.84;;;19.42;51.43
22572;BME280;11452;53.368;14.658;2023-07-20T20:37:43;100652.77;;;19.42;51.83
22572;BME280;11452;53.368;14.658;2023-07-20T20:42:50;100651.98;;;19.46;52.04
22572;BME280;11452;53.368;14.658;2023-07-20T20:47:55;100653.27;;;19.51;52.60
22572;BME280;11452;53.368;14.658;2023-07-20T20:53:03;100664.39;;;19.48;52.48
22572;BME280;11452;53.368;14.658;2023-07-20T20:58:09;100662.89;;;19.30;52.85
22572;BME280;11452;53.368;14.658;2023-07-20T21:03:15;100665.91;;;19.27;52.96
22572;BME280;11452;53.368;14.658;2023-07-20T21:08:21;100671.82;;;19.17;53.21
22572;BME280;11452;53.368;14.658;2023-07-20T21:13:28;100671.88;;;19.12;53.26
22572;BME280;11452;53.368;14.658;2023-07-20T21:18:34;100672.23;;;19.13;53.59
22572;BME280;11452;53.368;14.658;2023-07-20T21:23:40;100677.39;;;19.06;53.87
22572;BME280;11452;53.368;14.658;2023-07-20T21:28:46;100674.83;;;19.05;53.84
22572;BME280;11452;53.368;14.658;2023-07-20T21:33:52;100681.52;;;19.00;54.14
22572;BME280;11452;53.368;14.658;2023-07-20T21:38:57;100683.07;;;18.93;54.30
22572;BME280;11452;53.368;14.658;2023-07-20T21:44:04;100682.30;;;18.87;54.56
22572;BME280;11452;53.368;14.658;2023-07-20T21:49:10;100683.49;;;18.79;54.79
22572;BME280;11452;53.368;14.658;2023-07-20T21:54:15;100686.06;;;18.71;54.96
22572;BME280;11452;53.368;14.658;2023-07-20T21:59:21;100693.17;;;18.57;55.26
22572;BME280;11452;53.368;14.658;2023-07-20T22:04:27;100697.58;;;18.48;55.55
22572;BME280;11452;53.368;14.658;2023-07-20T22:09:34;100694.14;;;18.37;55.85
22572;BME280;11452;53.368;14.658;2023-07-20T22:14:40;100695.76;;;18.33;56.24
22572;BME280;11452;53.368;14.658;2023-07-20T22:19:46;100688.94;;;18.24;56.55
22572;BME280;11452;53.368;14.658;2023-07-20T22:24:52;100686.84;;;18.12;56.87
22572;BME280;11452;53.368;14.658;2023-07-20T22:29:57;100690.77;;;18.14;57.46
22572;BME280;11452;53.368;14.658;2023-07-20T22:35:04;100699.15;;;18.11;57.60
22572;BME280;11452;53.368;14.658;2023-07-20T22:40:11;100694.23;;;17.95;57.92
22572;BME280;11452;53.368;14.658;2023-07-20T22:45:17;100689.85;;;17.88;58.20
22572;BME280;11452;53.368;14.658;2023-07-20T22:50:23;100694.86;;;17.78;58.60
22572;BME280;11452;53.368;14.658;2023-07-20T22:55:29;100691.48;;;17.64;59.18
22572;BME280;11452;53.368;14.658;2023-07-20T23:00:35;100690.52;;;17.60;59.48
22572;BME280;11452;53.368;14.658;2023-07-20T23:05:40;100688.94;;;17.57;59.82
22572;BME280;11452;53.368;14.658;2023-07-20T23:10:46;100683.55;;;17.52;60.05
22572;BME280;11452;53.368;14.658;2023-07-20T23:15:52;100681.16;;;17.43;60.35
22572;BME280;11452;53.368;14.658;2023-07-20T23:20:58;100687.45;;;17.38;60.71
22572;BME280;11452;53.368;14.658;2023-07-20T23:26:03;100679.88;;;17.26;60.94
22572;BME280;11452;53.368;14.658;2023-07-20T23:31:10;100683.12;;;17.20;61.21
22572;BME280;11452;53.368;14.658;2023-07-20T23:36:16;100680.69;;;17.12;61.69
22572;BME280;11452;53.368;14.658;2023-07-20T23:41:22;100685.30;;;17.00;61.94
22572;BME280;11452;53.368;14.658;2023-07-20T23:46:29;100684.37;;;16.84;62.39
22572;BME280;11452;53.368;14.658;2023-07-20T23:51:35;100684.87;;;16.73;62.74
22572;BME280;11452;53.368;14.658;2023-07-20T23:56:41;100688.34;;;16.69;63.20
